Time;durP1;ratioP1;P1;durP2;ratioP2;P2;SDS_P1;SDS_P2;PMS_P1;PMS_P2;Temp;Humidity;BMP_temperature;BMP_pressure;BME280_temperature;BME280_humidity;BME280_pressure;Samples;Min_cycle;Max_cycle;Signal;HPM_P1;HPM_P2
2023/01/13 00:00:55;;;;;;;;;;;;;;;7.11;100.00;98382.75;4294917;33;20371;-74
2023/01/13 00:03:22;;;;;;;;;;;;;;;7.04;100.00;98388.28;4294591;33;19963;-73
2023/01/13 00:05:48;;;;;;;;;;;;;;;7.07;100.00;98378.97;4294091;33;19997;-74
2023/01/13 00:08:14;;;;;;;;;;;;;;;7.06;100.00;98388.84;4294225;33;19940;-75
2023/01/13 00:10:40;;;;;;;;;;;;;;;7.18;100.00;98379.91;4281049;33;19947;-75
2023/01/13 00:13:07;;;;;;;;;;;;;;;7.25;100.00;98375.22;4293057;33;20441;-74
2023/01/13 00:15:33;;;;;;;;;;;;;;;7.14;100.00;98379.59;4280790;33;19945;-74
2023/01/13 00:18:06;;;;;;;;;;;;;;;6.89;100.00;98375.47;4271959;33;20052;-74
2023/01/13 00:20:32;;;;;;;;;;;;;;;7.11;100.00;98376.63;4265485;33;19964;-74
2023/01/13 00:23:00;;;;;;;;;;;;;;;6.96;100.00;98377.19;4269829;33;19984;-74
2023/01/13 00:25:26;;;;;;;;;;;;;;;6.96;100.00;98371.81;4280405;33;19981;-74
2023/01/13 00:27:52;;;;;;;;;;;;;;;7.03;100.00;98369.78;4250023;33;20249;-74
2023/01/13 00:30:18;;;;;;;;;;;;;;;7.09;100.00;98363.47;4249501;33;19982;-74
2023/01/13 00:32:45;;;;;;;;;;;;;;;7.14;100.00;98366.22;4242347;33;19966;-74
2023/01/13 00:35:11;;;;;;;;;;;;;;;7.28;100.00;98353.31;4223902;33;19946;-74
2023/01/13 00:37:38;;;;;;;;;;;;;;;6.88;100.00;98357.78;4226501;34;19952;-74
2023/01/13 00:40:04;;;;;;;;;;;;;;;7.22;100.00;98356.97;4213795;34;19951;-74
2023/01/13 00:45:15;;;;;;;;;;;;;;;7.22;100.00;98357.78;4213057;34;20343;-74
2023/01/13 00:47:42;;;;;;;;;;;;;;;6.85;100.00;98362.81;4211698;34;20297;-74
2023/01/13 00:50:08;;;;;;;;;;;;;;;6.89;100.00;98362.09;4210666;34;19979;-74
2023/01/13 00:52:35;;;;;;;;;;;;;;;7.03;100.00;98361.75;4212631;34;20753;-75
2023/01/13 00:55:01;;;;;;;;;;;;;;;6.81;100.00;98356.31;4211678;34;19954;-75
2023/01/13 00:57:27;;;;;;;;;;;;;;;7.19;100.00;98352.91;4223612;34;19951;-74
2023/01/13 00:59:53;;;;;;;;;;;;;;;6.95;100.00;98356.81;4238689;33;20347;-74
2023/01/13 03:02:32;;;;;;;;;;;;;;;6.86;100.00;98258.19;4294104;27;19953;-72
2023/01/13 03:04:59;;;;;;;;;;;;;;;7.04;100.00;98254.44;4296112;33;20068;-72
2023/01/13 03:07:44;;;;;;;;;;;;;;;6.99;100.00;98253.53;4298011;33;19957;-73
2023/01/13 03:10:46;;;;;;;;;;;;;;;7.13;100.00;98254.03;4297775;33;20343;-73
2023/01/13 03:13:36;;;;;;;;;;;;;;;6.94;100.00;98237.41;4252509;33;19964;-73
2023/01/13 03:16:16;;;;;;;;;;;;;;;7.06;100.00;98240.81;4293943;33;20280;-73
2023/01/13 03:18:49;;;;;;;;;;;;;;;7.06;100.00;98238.13;4297002;33;20392;-74
2023/01/13 03:21:18;;;;;;;;;;;;;;;6.80;100.00;98248.47;4296761;33;19969;-73
2023/01/13 03:23:54;;;;;;;;;;;;;;;6.93;100.00;98241.16;4295337;33;19963;-73
2023/01/13 03:26:21;;;;;;;;;;;;;;;7.20;100.00;98236.72;4295678;33;19949;-73
2023/01/13 03:28:54;;;;;;;;;;;;;;;7.20;100.00;98236.72;4293667;33;19948;-74
2023/01/13 03:31:25;;;;;;;;;;;;;;;7.02;100.00;98242.34;4284018;33;19953;-72
2023/01/13 03:33:56;;;;;;;;;;;;;;;7.32;100.00;98238.47;4289426;33;19962;-73
2023/01/13 03:36:24;;;;;;;;;;;;;;;7.36;100.00;98239.63;4285531;33;19949;-73
2023/01/13 03:38:52;;;;;;;;;;;;;;;7.69;100.00;98229.81;4295204;33;20003;-74
2023/01/13 03:41:26;;;;;;;;;;;;;;;7.52;100.00;98233.41;4295157;33;20391;-73
2023/01/13 03:44:22;;;;;;;;;;;;;;;7.02;100.00;98242.34;4279496;33;20758;-74
2023/01/13 03:46:51;;;;;;;;;;;;;;;7.28;100.00;98238.97;4266717;33;20413;-73
2023/01/13 03:49:20;;;;;;;;;;;;;;;7.22;100.00;98233.81;4264381;33;19949;-74
2023/01/13 03:51:52;;;;;;;;;;;;;;;7.28;100.00;98233.63;4266559;33;19948;-73
2023/01/13 03:54:20;;;;;;;;;;;;;;;7.05;100.00;98239.19;4266840;33;19989;-74
2023/01/13 03:56:49;;;;;;;;;;;;;;;7.31;100.00;98231.50;4273623;33;19950;-74
2023/01/13 03:59:20;;;;;;;;;;;;;;;7.20;100.00;98220.66;4251688;33;19942;-73
2023/01/13 04:01:49;;;;;;;;;;;;;;;7.27;100.00;98215.13;4266371;33;19949;-73
2023/01/13 04:04:19;;;;;;;;;;;;;;;7.12;100.00;98223.78;4265801;33;19945;-73
2023/01/13 04:06:51;;;;;;;;;;;;;;;7.08;100.00;98222.63;4266418;33;19946;-74
2023/01/13 04:09:37;;;;;;;;;;;;;;;6.91;100.00;98220.81;4264531;33;19955;-74
2023/01/13 04:12:09;;;;;;;;;;;;;;;7.27;100.00;98232.03;4264586;33;19958;-74
2023/01/13 04:14:36;;;;;;;;;;;;;;;7.40;100.00;98221.97;4271414;33;19938;-74
2023/01/13 04:17:02;;;;;;;;;;;;;;;7.35;100.00;98228.06;4283495;33;19962;-73
2023/01/13 04:19:28;;;;;;;;;;;;;;;7.32;100.00;98233.13;4308495;33;20004;-74
2023/01/13 04:21:55;;;;;;;;;;;;;;;7.53;100.00;98224.31;4309746;33;19970;-74
2023/01/13 04:24:21;;;;;;;;;;;;;;;7.16;100.00;98222.22;4309420;33;19937;-74
2023/01/13 04:26:47;;;;;;;;;;;;;;;7.35;100.00;98217.37;4309497;33;19954;-74
2023/01/13 04:29:13;;;;;;;;;;;;;;;7.44;100.00;98217.75;4308298;33;19944;-73
2023/01/13 04:31:40;;;;;;;;;;;;;;;7.47;100.00;98214.59;4308281;33;19949;-74
2023/01/13 04:34:06;;;;;;;;;;;;;;;7.25;100.00;98219.94;4308969;33;19968;-74
2023/01/13 04:36:34;;;;;;;;;;;;;;;7.49;100.00;98215.13;4309141;33;19945;-74
2023/01/13 04:39:00;;;;;;;;;;;;;;;7.64;100.00;98215.31;4309187;33;20239;-74
2023/01/13 04:41:27;;;;;;;;;;;;;;;7.73;100.00;98212.19;4308018;33;19944;-72
2023/01/13 04:43:53;;;;;;;;;;;;;;;7.31;100.00;98213.59;4283270;33;19955;-74
2023/01/13 04:46:19;;;;;;;;;;;;;;;7.49;100.00;98214.34;4269308;33;19952;-74
2023/01/13 04:48:45;;;;;;;;;;;;;;;7.11;100.00;98210.63;4266080;33;19949;-73
2023/01/13 04:51:12;;;;;;;;;;;;;;;7.60;100.00;98214.19;4279283;33;20055;-74
2023/01/13 04:53:38;;;;;;;;;;;;;;;7.36;100.00;98223.56;4279382;33;19980;-73
2023/01/13 04:56:04;;;;;;;;;;;;;;;7.56;100.00;98226.50;4279865;33;19951;-74
2023/01/13 04:58:30;;;;;;;;;;;;;;;7.55;100.00;98227.53;4280493;33;20039;-74
2023/01/13 05:00:57;;;;;;;;;;;;;;;7.47;100.00;98225.31;4280365;33;19958;-73
2023/01/13 05:03:29;;;;;;;;;;;;;;;7.66;100.00;98224.97;4280280;33;19957;-74
2023/01/13 05:05:55;;;;;;;;;;;;;;;7.86;100.00;98232.44;4278079;33;19949;-72
2023/01/13 05:08:21;;;;;;;;;;;;;;;7.35;100.00;98232.63;4273530;33;19957;-73
2023/01/13 05:10:48;;;;;;;;;;;;;;;7.53;100.00;98235.03;4279946;33;19985;-74
2023/01/13 05:16:59;;;;;;;;;;;;;;;7.82;100.00;98242.88;4279715;33;20289;-74
2023/01/13 05:18:48;;;;;;;;;;;;;;;7.41;100.00;98247.72;4266677;33;19993;-73
2023/01/13 05:26:44;;;;;;;;;;;;;;;7.27;100.00;98234.69;4287723;33;19981;-73
2023/01/13 05:29:10;;;;;;;;;;;;;;;7.60;100.00;98216.06;4297937;33;19962;-74
2023/01/13 05:31:37;;;;;;;;;;;;;;;7.43;100.00;98230.31;4299322;33;19941;-74
2023/01/13 05:34:03;;;;;;;;;;;;;;;7.34;100.00;98236.34;4297311;33;20038;-73
2023/01/13 05:36:29;;;;;;;;;;;;;;;7.25;100.00;98236.78;4298629;33;19948;-74
2023/01/13 05:44:13;;;;;;;;;;;;;;;7.39;100.00;98239.13;4299358;33;19945;-75
2023/01/13 05:46:40;;;;;;;;;;;;;;;7.47;100.00;98225.31;4298345;33;19949;-72
2023/01/13 05:49:13;;;;;;;;;;;;;;;7.75;100.00;98232.31;4280671;33;20065;-74
2023/01/13 05:51:39;;;;;;;;;;;;;;;7.56;100.00;98229.16;4282688;33;19949;-74
2023/01/13 05:54:05;;;;;;;;;;;;;;;7.36;100.00;98228.91;4280796;33;20249;-73
2023/01/13 05:56:32;;;;;;;;;;;;;;;7.90;100.00;98229.00;4269807;33;19956;-74
2023/01/13 05:58:58;;;;;;;;;;;;;;;7.62;100.00;98232.69;4279213;33;20425;-74
2023/01/13 06:01:24;;;;;;;;;;;;;;;7.15;100.00;98235.84;4282412;33;20307;-75
2023/01/13 06:03:51;;;;;;;;;;;;;;;7.08;100.00;98244.03;4282318;33;19937;-74
2023/01/13 06:06:17;;;;;;;;;;;;;;;7.12;100.00;98234.47;4282317;33;20267;-74
2023/01/13 06:08:43;;;;;;;;;;;;;;;7.11;100.00;98235.53;4269766;33;20293;-74
2023/01/13 06:11:10;;;;;;;;;;;;;;;6.99;100.00;98245.50;4280851;33;19945;-74
2023/01/13 06:13:36;;;;;;;;;;;;;;;7.00;100.00;98241.78;4282132;33;20360;-74
2023/01/13 06:16:02;;;;;;;;;;;;;;;7.35;100.00;98233.44;4282168;33;19946;-74
2023/01/13 06:18:28;;;;;;;;;;;;;;;7.23;100.00;98241.59;4267519;33;20295;-75
2023/01/13 06:20:55;;;;;;;;;;;;;;;7.46;100.00;98226.34;4262470;33;20056;-74
2023/01/13 06:23:21;;;;;;;;;;;;;;;7.26;100.00;98229.59;4267263;33;20761;-75
2023/01/13 06:25:48;;;;;;;;;;;;;;;7.49;100.00;98228.53;4267555;33;20340;-74
2023/01/13 06:28:14;;;;;;;;;;;;;;;7.87;100.00;98234.88;4267694;33;19960;-74
2023/01/13 06:30:49;;;;;;;;;;;;;;;7.41;100.00;98242.34;4266984;33;19954;-74
2023/01/13 06:33:18;;;;;;;;;;;;;;;7.17;100.00;98234.53;4264036;33;19960;-74
2023/01/13 06:35:49;;;;;;;;;;;;;;;7.25;100.00;98241.34;4267240;33;19975;-73
2023/01/13 06:38:17;;;;;;;;;;;;;;;7.36;100.00;98234.28;4266698;33;19952;-74
2023/01/13 06:40:43;;;;;;;;;;;;;;;7.17;100.00;98247.13;4266913;33;20066;-74
2023/01/13 06:43:16;;;;;;;;;;;;;;;7.13;100.00;98230.72;4266114;33;20027;-74
2023/01/13 06:45:45;;;;;;;;;;;;;;;7.09;100.00;98229.62;4267269;33;20004;-75
2023/01/13 06:48:11;;;;;;;;;;;;;;;7.52;100.00;98238.75;4265952;33;19957;-74
2023/01/13 06:50:37;;;;;;;;;;;;;;;7.23;100.00;98238.13;4280216;33;19941;-73
2023/01/13 06:53:04;;;;;;;;;;;;;;;7.42;100.00;98244.00;4295762;33;19957;-75
2023/01/13 06:55:30;;;;;;;;;;;;;;;7.22;100.00;98237.28;4298014;33;20111;-73
2023/01/13 06:57:57;;;;;;;;;;;;;;;7.17;100.00;98247.94;4294444;33;19937;-73
2023/01/13 07:00:24;;;;;;;;;;;;;;;7.53;100.00;98245.75;4295829;33;19987;-72
2023/01/13 07:02:50;;;;;;;;;;;;;;;7.34;100.00;98242.53;4294334;33;19961;-73
2023/01/13 07:05:17;;;;;;;;;;;;;;;7.33;100.00;98229.41;4263255;33;19947;-73
2023/01/13 07:07:43;;;;;;;;;;;;;;;7.25;100.00;98228.75;4267271;33;19972;-72
2023/01/13 07:10:12;;;;;;;;;;;;;;;7.16;100.00;98235.59;4264200;33;19963;-72
2023/01/13 07:15:28;;;;;;;;;;;;;;;7.39;100.00;98239.13;4241040;33;19988;-73
2023/01/13 07:17:54;;;;;;;;;;;;;;;7.34;100.00;98236.34;4265682;33;20290;-72
2023/01/13 07:20:20;;;;;;;;;;;;;;;7.41;100.00;98234.31;4265316;33;19951;-72
2023/01/13 07:22:52;;;;;;;;;;;;;;;7.20;100.00;98242.09;4267009;33;19958;-71
2023/01/13 07:25:18;;;;;;;;;;;;;;;7.32;100.00;98243.84;4262327;33;20459;-72
2023/01/13 07:27:44;;;;;;;;;;;;;;;7.17;100.00;98237.22;4264899;33;20007;-71
2023/01/13 07:30:11;;;;;;;;;;;;;;;7.44;100.00;98236.50;4277866;33;19940;-72
2023/01/13 07:32:37;;;;;;;;;;;;;;;7.25;100.00;98241.34;4279175;33;19953;-72
2023/01/13 07:35:04;;;;;;;;;;;;;;;6.74;100.00;98244.09;4279851;33;19953;-72
2023/01/13 07:37:31;;;;;;;;;;;;;;;7.09;100.00;98234.97;4285292;33;19946;-72
2023/01/13 07:39:57;;;;;;;;;;;;;;;7.04;100.00;98245.63;4295365;33;19941;-72
2023/01/13 07:45:09;;;;;;;;;;;;;;;7.50;100.00;98235.50;4293655;33;20046;-72
2023/01/13 07:47:35;;;;;;;;;;;;;;;7.55;100.00;98232.09;4286772;33;19976;-72
2023/01/13 07:50:01;;;;;;;;;;;;;;;7.17;100.00;98237.22;4296978;33;20320;-72
2023/01/13 07:52:27;;;;;;;;;;;;;;;6.90;100.00;98245.12;4280604;33;19975;-72
2023/01/13 07:54:54;;;;;;;;;;;;;;;7.20;100.00;98235.94;4280575;33;19959;-73
2023/01/13 07:57:20;;;;;;;;;;;;;;;7.19;100.00;98234.31;4271317;33;20073;-72
2023/01/13 07:59:46;;;;;;;;;;;;;;;7.52;100.00;98235.28;4277935;33;19961;-73
2023/01/13 08:02:12;;;;;;;;;;;;;;;7.11;100.00;98237.41;4256997;33;19965;-74
2023/01/13 08:04:39;;;;;;;;;;;;;;;7.31;100.00;98236.84;4263525;33;19989;-72
2023/01/13 08:07:05;;;;;;;;;;;;;;;7.09;100.00;98235.78;4265249;33;19975;-73
2023/01/13 08:09:32;;;;;;;;;;;;;;;7.33;100.00;98246.28;4260926;33;20335;-73
2023/01/13 08:14:43;;;;;;;;;;;;;;;7.35;100.00;98246.81;4263210;33;19961;-74
2023/01/13 08:17:09;;;;;;;;;;;;;;;7.32;100.00;98249.19;4264778;33;19985;-73
2023/01/13 08:19:35;;;;;;;;;;;;;;;7.54;100.00;98239.31;4245982;33;19990;-73
2023/01/13 08:22:01;;;;;;;;;;;;;;;7.38;100.00;98243.66;4250363;33;19954;-73
2023/01/13 08:24:28;;;;;;;;;;;;;;;7.42;100.00;98244.00;4276170;33;20097;-73
2023/01/13 08:26:54;;;;;;;;;;;;;;;7.49;100.00;98244.59;4279616;33;20016;-73
2023/01/13 08:29:20;;;;;;;;;;;;;;;7.22;100.00;98250.66;4278868;33;20029;-73
2023/01/13 08:31:46;;;;;;;;;;;;;;;7.33;100.00;98240.91;4277271;33;19941;-73
2023/01/13 08:34:13;;;;;;;;;;;;;;;7.34;100.00;98249.75;4290576;33;20151;-74
2023/01/13 08:36:39;;;;;;;;;;;;;;;7.43;100.00;98246.38;4294330;33;19962;-74
2023/01/13 08:39:05;;;;;;;;;;;;;;;7.61;100.00;98239.94;4290607;33;19934;-74
2023/01/13 08:44:17;;;;;;;;;;;;;;;7.53;100.00;98244.91;4293252;33;19969;-74
2023/01/13 08:46:42;;;;;;;;;;;;;;;7.53;100.00;98243.06;4292808;33;20004;-73
2023/01/13 08:49:09;;;;;;;;;;;;;;;7.91;100.00;98252.06;4276051;33;20432;-73
2023/01/13 08:51:35;;;;;;;;;;;;;;;7.81;100.00;98241.22;4277393;33;20379;-73
2023/01/13 08:54:02;;;;;;;;;;;;;;;7.64;100.00;98247.47;4276603;33;19961;-74
2023/01/13 08:56:28;;;;;;;;;;;;;;;7.64;100.00;98239.44;4283842;33;19945;-74
2023/01/13 08:58:58;;;;;;;;;;;;;;;7.81;100.00;98246.59;4287557;33;19945;-74
2023/01/13 09:01:24;;;;;;;;;;;;;;;7.98;100.00;98241.97;4281426;33;19968;-73
2023/01/13 09:03:51;;;;;;;;;;;;;;;7.83;100.00;98244.47;4290970;33;20279;-73
2023/01/13 09:06:19;;;;;;;;;;;;;;;7.87;100.00;98248.28;4291865;33;20372;-73
2023/01/13 09:08:45;;;;;;;;;;;;;;;8.02;100.00;98242.25;4287269;33;20428;-74
2023/01/13 09:14:03;;;;;;;;;;;;;;;8.25;100.00;98249.22;4276669;33;19966;-73
2023/01/13 09:16:29;;;;;;;;;;;;;;;8.19;100.00;98247.53;4271779;33;19998;-73
2023/01/13 09:18:56;;;;;;;;;;;;;;;7.99;100.00;98248.94;4261878;33;19971;-74
2023/01/13 09:21:22;;;;;;;;;;;;;;;8.29;100.00;98261.03;4258444;33;19969;-74
2023/01/13 09:23:48;;;;;;;;;;;;;;;8.26;100.00;98256.16;4256950;33;20013;-73
2023/01/13 09:26:17;;;;;;;;;;;;;;;8.11;100.00;98250.66;4259156;33;20039;-72
2023/01/13 09:28:43;;;;;;;;;;;;;;;8.25;100.00;98251.88;4268066;33;19952;-73
2023/01/13 09:31:09;;;;;;;;;;;;;;;8.36;100.00;98247.44;4270238;33;20008;-73
2023/01/13 09:36:20;;;;;;;;;;;;;;;8.14;100.00;98244.81;4270601;33;20032;-72
2023/01/13 09:38:50;;;;;;;;;;;;;;;8.43;100.00;98241.84;4268605;33;20013;-73
2023/01/13 09:44:09;;;;;;;;;;;;;;;8.34;100.00;98238.81;4295203;33;20383;-73
2023/01/13 09:46:43;;;;;;;;;;;;;;;8.47;100.00;98242.97;4295716;33;19965;-73
2023/01/13 09:49:19;;;;;;;;;;;;;;;8.34;100.00;98250.38;4295575;33;20112;-72
2023/01/13 09:51:50;;;;;;;;;;;;;;;8.48;100.00;98245.41;4297885;33;19949;-73
2023/01/13 09:54:24;;;;;;;;;;;;;;;8.14;100.00;98240.25;4297459;33;19992;-73
2023/01/13 09:56:50;;;;;;;;;;;;;;;8.42;100.00;98237.53;4295770;33;19996;-73
2023/01/13 09:59:16;;;;;;;;;;;;;;;8.31;100.00;98240.16;4294213;33;19945;-73
2023/01/13 10:01:42;;;;;;;;;;;;;;;8.36;100.00;98232.16;4295727;33;19971;-73
2023/01/13 10:04:10;;;;;;;;;;;;;;;8.90;100.00;98241.16;4302300;33;19948;-73
2023/01/13 10:06:37;;;;;;;;;;;;;;;8.57;100.00;98229.66;4291500;33;19959;-73
2023/01/13 10:09:04;;;;;;;;;;;;;;;8.78;100.00;98227.16;4286326;33;19953;-73
2023/01/13 10:14:33;;;;;;;;;;;;;;;8.46;100.00;98230.66;4279297;33;19953;-74
2023/01/13 10:17:18;;;;;;;;;;;;;;;8.92;100.00;98222.94;4277308;33;20007;-72
2023/01/13 10:19:54;;;;;;;;;;;;;;;8.65;100.00;98223.81;4277869;33;19961;-72
2023/01/13 10:22:35;;;;;;;;;;;;;;;8.64;100.00;98222.19;4278756;33;20020;-72
2023/01/13 10:25:19;;;;;;;;;;;;;;;8.46;100.00;98227.97;4279473;33;19957;-73
2023/01/13 10:27:48;;;;;;;;;;;;;;;8.33;100.00;98229.97;4279272;33;19958;-74
2023/01/13 10:30:29;;;;;;;;;;;;;;;8.35;100.00;98219.78;4276535;33;19945;-73
2023/01/13 10:32:57;;;;;;;;;;;;;;;8.29;100.00;98220.78;4278532;33;19959;-74
2023/01/13 10:35:42;;;;;;;;;;;;;;;8.42;100.00;98219.56;4265463;33;20041;-74
2023/01/13 10:38:15;;;;;;;;;;;;;;;8.49;100.00;98219.41;4262798;33;19954;-73
2023/01/13 10:40:52;;;;;;;;;;;;;;;8.08;100.00;98235.09;4262504;33;20118;-73
2023/01/13 10:43:18;;;;;;;;;;;;;;;7.88;100.00;98220.41;4285812;33;19982;-73
2023/01/13 10:46:11;;;;;;;;;;;;;;;7.81;100.00;98219.78;4290168;33;20032;-73
2023/01/13 10:48:41;;;;;;;;;;;;;;;7.89;100.00;98226.56;4276061;33;19974;-73
2023/01/13 10:51:17;;;;;;;;;;;;;;;8.26;100.00;98215.94;4277119;33;20005;-73
2023/01/13 10:53:54;;;;;;;;;;;;;;;8.16;100.00;98213.19;4277987;33;20336;-72
2023/01/13 10:56:21;;;;;;;;;;;;;;;8.39;100.00;98213.91;4277032;33;19961;-73
2023/01/13 10:59:12;;;;;;;;;;;;;;;8.22;100.00;98214.00;4277714;33;19999;-73
2023/01/13 11:01:40;;;;;;;;;;;;;;;8.08;100.00;98219.00;4235557;33;20000;-72
2023/01/13 11:04:24;;;;;;;;;;;;;;;8.12;100.00;98222.78;4231985;33;19939;-73
2023/01/13 11:06:50;;;;;;;;;;;;;;;8.00;100.00;98223.75;4243140;33;19989;-72
2023/01/13 11:09:21;;;;;;;;;;;;;;;8.44;100.00;98211.28;4248849;33;19956;-73
2023/01/13 11:11:54;;;;;;;;;;;;;;;8.59;100.00;98206.06;4250201;33;19949;-73
2023/01/13 11:14:32;;;;;;;;;;;;;;;8.70;100.00;98201.59;4249285;33;20333;-73
2023/01/13 11:17:18;;;;;;;;;;;;;;;8.86;100.00;98207.88;4249267;33;19968;-72
2023/01/13 11:19:54;;;;;;;;;;;;;;;8.16;100.00;98215.84;4253164;33;19945;-73
2023/01/13 11:22:26;;;;;;;;;;;;;;;8.30;100.00;98205.53;4260715;33;19989;-73
2023/01/13 11:24:55;;;;;;;;;;;;;;;8.73;100.00;98193.81;4262459;33;20073;-73
2023/01/13 11:27:37;;;;;;;;;;;;;;;8.86;100.00;98187.19;4263350;33;19942;-73
2023/01/13 11:30:08;;;;;;;;;;;;;;;8.58;100.00;98196.38;4231150;33;19958;-73
2023/01/13 11:32:38;;;;;;;;;;;;;;;8.82;100.00;98186.09;4239642;33;20013;-74
2023/01/13 11:35:13;;;;;;;;;;;;;;;8.61;100.00;98195.88;4249040;33;19958;-74
2023/01/13 11:37:40;;;;;;;;;;;;;;;8.65;100.00;98188.94;4250753;33;19964;-73
2023/01/13 11:40:15;;;;;;;;;;;;;;;8.60;100.00;98186.22;4248662;33;20319;-74
2023/01/13 11:42:47;;;;;;;;;;;;;;;8.95;100.00;98184.84;4241942;33;19945;-74
2023/01/13 11:45:19;;;;;;;;;;;;;;;8.76;100.00;98186.31;4248194;33;20323;-73
2023/01/13 11:47:46;;;;;;;;;;;;;;;9.39;100.00;98179.13;4250104;33;19946;-73
2023/01/13 11:50:16;;;;;;;;;;;;;;;8.64;100.00;98133.63;4206832;34;19935;-74
2023/01/13 11:52:58;;;;;;;;;;;;;;;8.71;100.00;98179.84;4208758;34;20329;-73
2023/01/13 11:55:38;;;;;;;;;;;;;;;8.60;100.00;98178.19;4208565;34;19990;-74
2023/01/13 11:58:05;;;;;;;;;;;;;;;9.15;100.00;98167.22;4207179;34;20057;-73
2023/01/13 12:03:37;;;;;;;;;;;;;;;9.13;100.00;98166.69;4216027;34;19986;-73
2023/01/13 12:06:18;;;;;;;;;;;;;;;9.51;100.00;98173.56;4223257;34;20338;-72
2023/01/13 12:08:45;;;;;;;;;;;;;;;9.34;100.00;98176.44;4223851;34;19954;-73
2023/01/13 12:11:31;;;;;;;;;;;;;;;8.97;100.00;98173.84;4222330;34;19951;-72
2023/01/13 12:14:06;;;;;;;;;;;;;;;9.17;100.00;98170.44;4228677;33;19998;-72
2023/01/13 12:16:42;;;;;;;;;;;;;;;9.28;100.00;98166.72;4236301;33;19975;-71
2023/01/13 12:19:29;;;;;;;;;;;;;;;9.41;100.00;98168.94;4236682;33;19960;-72
2023/01/13 12:22:06;;;;;;;;;;;;;;;9.62;100.00;98172.50;4259664;33;19967;-72
2023/01/13 12:24:42;;;;;;;;;;;;;;;9.15;100.00;98167.22;4248843;33;19969;-72
2023/01/13 12:27:08;;;;;;;;;;;;;;;9.21;100.00;98171.53;4252673;33;19959;-73
2023/01/13 12:29:36;;;;;;;;;;;;;;;9.08;100.00;98170.16;4248393;33;19956;-73
2023/01/13 12:32:04;;;;;;;;;;;;;;;8.77;100.00;98161.09;4244348;33;19995;-72
2023/01/13 12:34:50;;;;;;;;;;;;;;;8.80;100.00;98160.59;4243997;33;19961;-72
2023/01/13 12:37:25;;;;;;;;;;;;;;;9.19;100.00;98176.34;4246621;33;19965;-73
2023/01/13 12:39:58;;;;;;;;;;;;;;;9.50;100.00;98169.25;4247033;33;19955;-72
2023/01/13 12:45:09;;;;;;;;;;;;;;;9.37;100.00;98170.53;4241202;33;19942;-72
2023/01/13 12:47:38;;;;;;;;;;;;;;;9.22;100.00;98173.16;4241280;33;19970;-72
2023/01/13 12:50:24;;;;;;;;;;;;;;;8.96;100.00;98170.34;4242868;33;19960;-74
2023/01/13 12:52:55;;;;;;;;;;;;;;;9.02;100.00;98169.28;4240440;33;19968;-75
2023/01/13 12:55:22;;;;;;;;;;;;;;;9.39;100.00;98159.53;4232727;33;19968;-74
2023/01/13 12:58:14;;;;;;;;;;;;;;;9.35;100.00;98167.31;4224074;34;20001;-75
2023/01/13 13:00:40;;;;;;;;;;;;;;;9.02;100.00;98158.56;4207846;34;19955;-74
2023/01/13 13:03:09;;;;;;;;;;;;;;;9.23;100.00;98159.44;4216828;34;19954;-74
2023/01/13 13:05:40;;;;;;;;;;;;;;;9.23;100.00;98169.41;4222651;34;19983;-74
2023/01/13 13:08:25;;;;;;;;;;;;;;;9.55;100.00;98161.19;4224207;34;19951;-74
2023/01/13 13:10:57;;;;;;;;;;;;;;;9.16;100.00;98176.88;4224105;34;20018;-76
2023/01/13 13:13:47;;;;;;;;;;;;;;;9.42;100.00;98162.50;4223225;34;20315;-76
2023/01/13 13:16:25;;;;;;;;;;;;;;;9.32;100.00;98162.47;4207873;34;20335;-75
2023/01/13 13:19:11;;;;;;;;;;;;;;;9.34;100.00;98165.69;4193970;34;19959;-75
2023/01/13 13:21:56;;;;;;;;;;;;;;;9.29;100.00;98165.66;4188841;34;19943;-76
2023/01/13 13:24:24;;;;;;;;;;;;;;;8.96;100.00;98170.34;4195737;34;19947;-75
2023/01/13 13:26:50;;;;;;;;;;;;;;;9.00;100.00;98171.44;4183586;34;19977;-75
2023/01/13 13:29:27;;;;;;;;;;;;;;;9.05;100.00;98168.78;4180166;34;19974;-75
2023/01/13 13:32:00;;;;;;;;;;;;;;;9.31;100.00;98168.09;4181873;34;19962;-75
2023/01/13 13:34:34;;;;;;;;;;;;;;;9.21;100.00;98166.19;4184173;34;19964;-76
2023/01/13 13:37:19;;;;;;;;;;;;;;;9.52;100.00;98160.91;4185405;34;19971;-75
2023/01/13 13:48:24;;;;;;;;;;;;;;;9.52;100.00;98161.72;4188412;34;19959;-74
2023/01/13 13:50:55;;;;;;;;;;;;;;;9.39;100.00;98168.38;4213084;34;19962;-74
2023/01/13 13:53:26;;;;;;;;;;;;;;;9.32;100.00;98167.84;4228766;33;19995;-75
2023/01/13 13:55:57;;;;;;;;;;;;;;;9.14;100.00;98165.59;4226098;33;20000;-73
2023/01/13 13:58:25;;;;;;;;;;;;;;;9.18;100.00;98161.31;4234909;33;19939;-75
2023/01/13 14:00:51;;;;;;;;;;;;;;;9.43;100.00;98158.75;4238612;33;19968;-75
2023/01/13 14:03:23;;;;;;;;;;;;;;;9.33;100.00;98169.44;4257065;33;20311;-74
2023/01/13 14:05:52;;;;;;;;;;;;;;;9.28;100.00;98177.47;4254418;33;20072;-76
2023/01/13 14:08:19;;;;;;;;;;;;;;;9.23;100.00;98169.41;4242531;33;20001;-76
2023/01/13 14:10:46;;;;;;;;;;;;;;;9.44;100.00;98175.66;4241423;33;19952;-75
2023/01/13 14:13:12;;;;;;;;;;;;;;;9.47;100.00;98175.12;4239646;33;20400;-77
2023/01/13 14:15:39;;;;;;;;;;;;;;;9.51;100.00;98183.47;4214384;34;19947;-75
2023/01/13 14:18:11;;;;;;;;;;;;;;;9.55;100.00;98182.69;4215785;34;20377;-75
2023/01/13 14:20:37;;;;;;;;;;;;;;;9.42;100.00;98186.66;4227660;33;19950;-75
2023/01/13 14:23:04;;;;;;;;;;;;;;;9.65;100.00;98181.91;4228240;33;19990;-75
2023/01/13 14:25:38;;;;;;;;;;;;;;;9.63;100.00;98182.16;4215692;34;20302;-75
2023/01/13 14:28:27;;;;;;;;;;;;;;;9.43;100.00;98185.59;4241891;33;19968;-75
2023/01/13 14:30:54;;;;;;;;;;;;;;;9.58;100.00;98181.34;4242877;33;19954;-75
2023/01/13 14:33:23;;;;;;;;;;;;;;;9.48;100.00;98182.13;4239191;33;20004;-76
2023/01/13 14:36:08;;;;;;;;;;;;;;;9.41;100.00;98182.38;4249135;33;19945;-75
2023/01/13 14:38:35;;;;;;;;;;;;;;;9.48;100.00;98186.69;4224139;34;19969;-76
2023/01/13 14:41:19;;;;;;;;;;;;;;;9.43;100.00;98190.97;4223359;34;19943;-75
2023/01/13 14:43:49;;;;;;;;;;;;;;;9.37;100.00;98202.78;4223056;34;20006;-73
2023/01/13 14:46:16;;;;;;;;;;;;;;;9.30;100.00;98194.13;4226340;33;20314;-75
2023/01/13 14:48:46;;;;;;;;;;;;;;;9.54;100.00;98196.38;4237967;33;20348;-76
2023/01/13 14:51:19;;;;;;;;;;;;;;;9.73;100.00;98194.84;4265243;33;19951;-77
2023/01/13 14:53:47;;;;;;;;;;;;;;;9.48;100.00;98202.81;4264533;33;20348;-77
2023/01/13 14:56:32;;;;;;;;;;;;;;;9.34;100.00;98203.28;4263789;33;19971;-76
2023/01/13 14:59:01;;;;;;;;;;;;;;;9.19;100.00;98212.09;4237189;33;19973;-76
2023/01/13 15:01:28;;;;;;;;;;;;;;;9.57;100.00;98206.59;4238907;33;20278;-76
2023/01/13 15:04:14;;;;;;;;;;;;;;;9.28;100.00;98204.34;4236051;33;19945;-76
2023/01/13 15:06:47;;;;;;;;;;;;;;;8.93;100.00;98215.69;4237917;33;19960;-75
2023/01/13 15:09:22;;;;;;;;;;;;;;;8.85;100.00;98223.16;4238693;33;19935;-74
2023/01/13 15:11:48;;;;;;;;;;;;;;;8.96;100.00;98212.50;4239055;33;20007;-75
2023/01/13 15:14:22;;;;;;;;;;;;;;;9.05;100.00;98210.94;4239120;33;19979;-75
2023/01/13 15:16:48;;;;;;;;;;;;;;;9.00;100.00;98217.09;4239069;33;19991;-76
2023/01/13 15:19:14;;;;;;;;;;;;;;;9.15;100.00;98204.81;4237035;33;19960;-75
2023/01/13 15:21:40;;;;;;;;;;;;;;;8.91;100.00;98214.06;4235092;33;19946;-76
2023/01/13 15:24:07;;;;;;;;;;;;;;;9.12;100.00;98210.72;4224318;34;20017;-75
2023/01/13 15:26:33;;;;;;;;;;;;;;;9.02;100.00;98217.63;4224584;34;20318;-75
2023/01/13 15:29:00;;;;;;;;;;;;;;;8.92;100.00;98217.56;4226079;33;20369;-75
2023/01/13 15:31:27;;;;;;;;;;;;;;;8.95;100.00;98217.06;4254012;33;19954;-74
2023/01/13 15:33:53;;;;;;;;;;;;;;;8.96;100.00;98218.66;4253472;33;20223;-76
2023/01/13 15:36:22;;;;;;;;;;;;;;;8.87;100.00;98228.25;4254891;33;19950;-75
2023/01/13 15:38:49;;;;;;;;;;;;;;;8.67;100.00;98221.69;4266984;33;20039;-75
2023/01/13 15:41:15;;;;;;;;;;;;;;;8.90;100.00;98233.13;4223119;34;19957;-74
2023/01/13 15:46:38;;;;;;;;;;;;;;;8.53;100.00;98236.59;4223732;33;19943;-75
2023/01/13 15:49:11;;;;;;;;;;;;;;;8.79;100.00;98240.31;4221694;34;20337;-75
2023/01/13 15:51:39;;;;;;;;;;;;;;;8.64;100.00;98227.56;4224207;34;20213;-76
2023/01/13 15:54:06;;;;;;;;;;;;;;;8.46;100.00;98238.69;4223683;34;19984;-75
2023/01/13 15:56:35;;;;;;;;;;;;;;;8.89;100.00;98234.19;4223553;34;19960;-77
2023/01/13 15:59:02;;;;;;;;;;;;;;;8.51;100.00;98238.72;4221627;34;19947;-74